Casimiro de Abreu, Brazil
Current Conditions -  °F | °C
As of 7:00 PM on Thursday 27 Nov 2014 (Local Time) from SBES Reporting Station
Light Rain Light Rain  
Wind Chill: 73°   Ceiling: 1500
Heat Index: 73°   Visibility: 2.5mi
Dew Point: 72°   Wind: 5mph
Humidity: 94%   Direction: 250°WSW
Pressure: 29.85"   Gusts: NA
Location:  22.48°S, 42.2°W
Report Text: SBES 272100Z 25004KT 4000 -RA SCT006 SCT009 BKN015 23/22 Q1011
Loading
Personal Weather Stations






























Interactive Weather Map New forecast layout! Learn more

10-Day Weather Forecast

Advertisements
Track Severe Weather on mobile